createdAt,value
2022-09-17T00:00:20.486Z,34.40
2022-09-17T00:01:20.689Z,26.80
2022-09-17T00:02:20.464Z,28.80
2022-09-17T00:03:20.520Z,27.50
2022-09-17T00:04:20.441Z,29.30
2022-09-17T00:05:20.433Z,29.60
2022-09-17T00:06:20.426Z,36.10
2022-09-17T00:07:20.409Z,28.60
2022-09-17T00:08:20.405Z,28.10
2022-09-17T00:09:20.390Z,26.10
2022-09-17T00:10:20.373Z,32.60
2022-09-17T00:11:20.366Z,45.40
2022-09-17T00:12:20.353Z,36.70
2022-09-17T00:13:20.342Z,31.90
2022-09-17T00:14:20.330Z,28.20
2022-09-17T00:15:20.322Z,33.20
2022-09-17T00:16:20.361Z,26.10
2022-09-17T00:17:20.419Z,28.20
2022-09-17T00:18:20.292Z,33.40
2022-09-17T00:19:20.286Z,28.80
2022-09-17T00:20:20.268Z,29.70
2022-09-17T00:21:20.253Z,37.60
2022-09-17T00:22:20.239Z,36.20
2022-09-17T00:23:20.230Z,31.50
2022-09-17T00:24:20.220Z,26.80
2022-09-17T00:25:20.208Z,33.00
2022-09-17T00:26:20.196Z,33.40
2022-09-17T00:27:20.184Z,31.40
2022-09-17T00:28:20.174Z,28.70
2022-09-17T00:29:20.164Z,30.00
2022-09-17T00:30:20.149Z,32.40
2022-09-17T00:31:20.233Z,28.70
2022-09-17T00:32:20.127Z,28.60
2022-09-17T00:33:20.249Z,25.80
2022-09-17T00:34:20.107Z,32.70
2022-09-17T00:35:20.096Z,32.10
2022-09-17T00:36:20.090Z,36.60
2022-09-17T00:37:20.079Z,31.30
2022-09-17T00:38:20.065Z,34.90
2022-09-17T00:39:20.058Z,34.90
2022-09-17T00:40:20.138Z,30.60
2022-09-17T00:41:20.034Z,29.40
2022-09-17T00:42:20.018Z,38.90
2022-09-17T00:43:20.011Z,33.30
2022-09-17T00:44:19.997Z,39.20
2022-09-17T00:45:19.986Z,33.30
2022-09-17T00:46:20.016Z,25.60
2022-09-17T00:47:19.969Z,28.60
2022-09-17T00:48:19.951Z,32.80
2022-09-17T00:49:20.059Z,30.10
2022-09-17T00:50:19.931Z,35.40
2022-09-17T00:51:19.920Z,27.20
2022-09-17T00:52:19.906Z,36.00
2022-09-17T00:53:19.900Z,26.00
2022-09-17T00:54:19.888Z,34.80
2022-09-17T00:55:19.876Z,27.00
2022-09-17T00:56:19.864Z,33.20
2022-09-17T00:57:19.857Z,29.50
2022-09-17T00:58:19.843Z,30.20
2022-09-17T00:59:19.834Z,29.10
2022-09-17T01:00:20.195Z,32.20
2022-09-17T01:01:19.874Z,28.90
2022-09-17T01:02:19.870Z,31.90
2022-09-17T01:03:19.788Z,26.40
2022-09-17T01:04:19.779Z,27.70
2022-09-17T01:05:19.891Z,25.60
2022-09-17T01:06:19.756Z,25.30
2022-09-17T01:07:19.746Z,29.20
2022-09-17T01:08:19.730Z,31.00
2022-09-17T01:09:19.724Z,45.40
2022-09-17T01:10:19.719Z,28.90
2022-09-17T01:11:19.705Z,32.80
2022-09-17T01:12:19.698Z,33.00
2022-09-17T01:13:19.678Z,33.00
2022-09-17T01:14:19.665Z,29.40
2022-09-17T01:15:19.662Z,33.50
2022-09-17T01:16:19.780Z,37.50
2022-09-17T01:17:19.638Z,33.70
2022-09-17T01:18:19.626Z,27.90
2022-09-17T01:19:19.618Z,27.40
2022-09-17T01:20:19.601Z,31.70
2022-09-17T01:21:19.708Z,25.70
2022-09-17T01:22:19.582Z,28.90
2022-09-17T01:23:19.570Z,34.40
2022-09-17T01:24:19.558Z,37.80
2022-09-17T01:25:19.550Z,37.00
2022-09-17T01:26:19.579Z,25.20
2022-09-17T01:27:19.531Z,33.60
2022-09-17T01:28:19.515Z,40.40
2022-09-17T01:29:19.505Z,29.50
2022-09-17T01:30:19.492Z,27.00
2022-09-17T01:31:19.587Z,27.30
2022-09-17T01:32:19.469Z,26.10
2022-09-17T01:33:19.462Z,25.10
2022-09-17T01:34:19.449Z,28.40
2022-09-17T01:35:19.438Z,29.20
2022-09-17T01:36:19.432Z,38.50
2022-09-17T01:37:19.534Z,31.80
2022-09-17T01:38:19.403Z,35.10
2022-09-17T01:39:19.400Z,35.30
2022-09-17T01:40:19.492Z,24.30
2022-09-17T01:41:19.372Z,30.30
2022-09-17T01:42:19.362Z,31.40
2022-09-17T01:43:19.352Z,33.00
2022-09-17T01:44:19.340Z,34.00
2022-09-17T01:45:19.328Z,34.50
2022-09-17T01:46:19.389Z,25.80
2022-09-17T01:47:21.154Z,24.40
2022-09-17T01:48:19.294Z,28.70
2022-09-17T01:49:19.283Z,32.00
2022-09-17T01:50:19.271Z,24.40
2022-09-17T01:51:19.259Z,25.30
2022-09-17T01:52:19.252Z,28.70
2022-09-17T01:53:19.364Z,22.90
2022-09-17T01:54:19.227Z,24.60
2022-09-17T01:55:19.217Z,25.00
2022-09-17T01:56:19.203Z,22.70
2022-09-17T01:57:19.194Z,25.80
2022-09-17T01:58:19.182Z,26.60
2022-09-17T01:59:19.171Z,18.90
2022-09-17T02:00:19.161Z,23.40
2022-09-17T02:01:19.200Z,23.60
2022-09-17T02:02:19.285Z,24.70
2022-09-17T02:03:19.127Z,19.50
2022-09-17T02:04:19.114Z,19.80
2022-09-17T02:05:19.104Z,26.30
2022-09-17T02:06:19.093Z,16.50
2022-09-17T02:07:19.082Z,18.30
2022-09-17T02:08:19.071Z,22.30
2022-09-17T02:09:19.177Z,28.20
2022-09-17T02:10:19.049Z,22.10
2022-09-17T02:11:19.038Z,23.10
2022-09-17T02:12:19.026Z,24.50
2022-09-17T02:13:19.016Z,24.30
2022-09-17T02:14:19.004Z,20.80
2022-09-17T02:15:18.994Z,19.50
2022-09-17T02:16:19.020Z,28.70
2022-09-17T02:17:18.973Z,28.10
2022-09-17T02:18:18.959Z,24.80
2022-09-17T02:19:18.948Z,27.50
2022-09-17T02:20:22.796Z,17.40
2022-09-17T02:21:18.924Z,21.20
2022-09-17T02:22:18.910Z,21.10
2022-09-17T02:23:18.905Z,24.60
2022-09-17T02:24:18.892Z,24.10
2022-09-17T02:25:19.002Z,26.80
2022-09-17T02:26:18.870Z,22.60
2022-09-17T02:27:18.870Z,21.80
2022-09-17T02:28:18.845Z,17.30
2022-09-17T02:29:18.836Z,17.70
2022-09-17T02:30:18.824Z,16.40
2022-09-17T02:31:18.874Z,18.50
2022-09-17T02:32:18.804Z,24.70
2022-09-17T02:33:18.809Z,15.80
2022-09-17T02:34:18.796Z,14.80
2022-09-17T02:35:18.964Z,21.00
2022-09-17T02:36:18.847Z,26.00
2022-09-17T02:37:18.834Z,22.20
2022-09-17T02:38:18.892Z,21.10
2022-09-17T02:39:18.821Z,20.60
2022-09-17T02:40:18.913Z,21.40
2022-09-17T02:41:18.845Z,19.70
2022-09-17T02:42:18.693Z,20.60
2022-09-17T02:43:18.679Z,18.90
2022-09-17T02:44:18.675Z,17.40
2022-09-17T02:45:18.659Z,17.60
2022-09-17T02:46:18.710Z,21.50
2022-09-17T02:47:18.634Z,18.50
2022-09-17T02:48:18.622Z,17.70
2022-09-17T02:49:18.613Z,19.50
2022-09-17T02:50:18.601Z,14.10
2022-09-17T02:51:18.596Z,15.20
2022-09-17T02:52:18.579Z,20.30
2022-09-17T02:53:18.568Z,23.50
2022-09-17T02:54:18.556Z,18.00
2022-09-17T02:55:18.545Z,20.90
2022-09-17T02:56:18.533Z,25.10
2022-09-17T02:57:18.648Z,14.90
2022-09-17T02:58:18.511Z,18.60
2022-09-17T02:59:18.502Z,18.30
2022-09-17T03:00:18.488Z,23.80
2022-09-17T03:01:18.513Z,23.30
2022-09-17T03:02:18.573Z,18.40
2022-09-17T03:03:18.456Z,21.30
2022-09-17T03:04:18.459Z,20.80
2022-09-17T03:05:18.436Z,25.50
2022-09-17T03:06:18.438Z,22.80
2022-09-17T03:07:18.412Z,30.90
2022-09-17T03:08:18.399Z,23.30
2022-09-17T03:09:18.403Z,28.70
2022-09-17T03:10:18.378Z,24.60
2022-09-17T03:11:18.365Z,22.10
2022-09-17T03:12:18.362Z,21.50
2022-09-17T03:13:18.471Z,24.90
2022-09-17T03:14:18.331Z,22.90
2022-09-17T03:15:18.320Z,25.90
2022-09-17T03:16:18.422Z,29.50
2022-09-17T03:17:18.306Z,22.90
2022-09-17T03:18:18.289Z,26.80
2022-09-17T03:19:18.278Z,20.00
2022-09-17T03:20:18.269Z,24.00
2022-09-17T03:21:18.256Z,22.10
2022-09-17T03:22:18.245Z,27.50
2022-09-17T03:23:18.237Z,27.90
2022-09-17T03:24:18.226Z,21.80
2022-09-17T03:25:18.213Z,32.00
2022-09-17T03:26:18.202Z,23.30
2022-09-17T03:27:18.190Z,25.50
2022-09-17T03:28:18.181Z,27.20
2022-09-17T03:29:18.287Z,23.00
2022-09-17T03:30:18.155Z,24.00
2022-09-17T03:31:18.157Z,23.60
2022-09-17T03:32:18.134Z,22.80
2022-09-17T03:33:18.137Z,24.90
2022-09-17T03:34:18.117Z,22.40
2022-09-17T03:35:18.106Z,24.70
2022-09-17T03:36:18.092Z,28.00
2022-09-17T03:37:18.081Z,23.30
2022-09-17T03:38:18.069Z,31.00
2022-09-17T03:39:18.061Z,21.70
2022-09-17T03:40:18.126Z,26.90
2022-09-17T03:41:18.038Z,28.90
2022-09-17T03:42:18.029Z,22.20
2022-09-17T03:43:18.026Z,28.90
2022-09-17T03:44:18.007Z,30.90
2022-09-17T03:45:18.118Z,30.70
2022-09-17T03:46:18.022Z,24.10
2022-09-17T03:47:18.021Z,30.10
2022-09-17T03:48:17.960Z,26.40
2022-09-17T03:49:17.952Z,24.80
2022-09-17T03:50:17.941Z,22.80
2022-09-17T03:51:17.980Z,30.80
2022-09-17T03:52:17.925Z,32.20
2022-09-17T03:53:17.907Z,24.00
2022-09-17T03:54:17.901Z,21.50
2022-09-17T03:55:17.986Z,20.30
2022-09-17T03:56:17.874Z,21.80
2022-09-17T03:57:17.925Z,23.80
2022-09-17T03:58:17.956Z,25.20
2022-09-17T03:59:17.848Z,19.40
2022-09-17T04:00:17.890Z,23.40
2022-09-17T04:01:18.067Z,21.20
2022-09-17T04:02:17.969Z,21.60
2022-09-17T04:03:17.815Z,25.30
2022-09-17T04:04:17.846Z,25.90
2022-09-17T04:05:17.864Z,20.50
2022-09-17T04:06:17.827Z,21.80
2022-09-17T04:07:17.869Z,23.40
2022-09-17T04:08:17.835Z,19.60
2022-09-17T04:09:17.830Z,25.70
2022-09-17T04:10:17.881Z,29.00
2022-09-17T04:11:17.961Z,25.80
2022-09-17T04:12:18.039Z,23.50
2022-09-17T04:13:17.777Z,29.10
2022-09-17T04:14:17.720Z,20.80
2022-09-17T04:15:17.747Z,28.70
2022-09-17T04:16:17.798Z,28.10
2022-09-17T04:17:18.106Z,20.80
2022-09-17T04:18:17.749Z,24.90
2022-09-17T04:19:17.723Z,22.90
2022-09-17T04:20:17.705Z,24.50
2022-09-17T04:21:17.672Z,20.60
2022-09-17T04:22:17.718Z,23.20
2022-09-17T04:23:17.664Z,20.40
2022-09-17T04:24:17.673Z,21.80
2022-09-17T04:25:17.599Z,21.10
2022-09-17T04:26:17.607Z,20.00
2022-09-17T04:27:17.582Z,18.50
2022-09-17T04:28:17.664Z,20.70
2022-09-17T04:29:17.588Z,27.00
2022-09-17T04:30:17.605Z,17.50
2022-09-17T04:31:17.561Z,23.40
2022-09-17T04:32:17.699Z,21.40
2022-09-17T04:33:17.841Z,18.80
2022-09-17T04:34:17.531Z,24.00
2022-09-17T04:35:17.525Z,19.80
2022-09-17T04:36:17.551Z,23.80
2022-09-17T04:37:17.833Z,17.50
2022-09-17T04:38:17.577Z,16.40
2022-09-17T04:39:17.476Z,19.70
2022-09-17T04:40:17.530Z,18.60
2022-09-17T04:41:17.610Z,18.70
2022-09-17T04:42:17.492Z,14.90
2022-09-17T04:43:17.447Z,20.20
2022-09-17T04:44:17.485Z,15.30
2022-09-17T04:45:17.487Z,17.90
2022-09-17T04:46:17.475Z,21.20
2022-09-17T04:47:17.523Z,24.00
2022-09-17T04:48:17.394Z,19.60
2022-09-17T04:49:17.554Z,19.80
2022-09-17T04:50:17.568Z,18.50
2022-09-17T04:51:17.349Z,20.30
2022-09-17T04:52:17.391Z,22.10
2022-09-17T04:53:17.298Z,18.20
2022-09-17T04:54:17.316Z,19.80
2022-09-17T04:55:17.311Z,19.80
2022-09-17T04:56:17.338Z,16.90
2022-09-17T04:57:17.313Z,18.30
2022-09-17T04:58:17.275Z,22.00
2022-09-17T04:59:17.311Z,15.80
2022-09-17T05:00:17.492Z,23.00
2022-09-17T05:01:17.340Z,18.70
2022-09-17T05:02:17.346Z,22.40
2022-09-17T05:03:17.234Z,22.70
2022-09-17T05:04:17.192Z,26.50
2022-09-17T05:05:17.375Z,19.20
2022-09-17T05:06:17.203Z,19.40
2022-09-17T05:07:51.487Z,33.70
2022-09-17T05:08:51.468Z,30.50
2022-09-17T05:09:51.490Z,22.60
2022-09-17T05:10:51.410Z,21.80
2022-09-17T05:11:51.423Z,27.60
2022-09-17T05:12:51.466Z,25.00
2022-09-17T05:13:51.347Z,22.80
2022-09-17T05:14:51.477Z,27.10
2022-09-17T05:15:51.458Z,20.50
2022-09-17T05:16:51.361Z,21.10
2022-09-17T05:17:51.551Z,20.30
2022-09-17T05:18:51.323Z,24.70
2022-09-17T05:19:51.602Z,18.00
2022-09-17T05:20:51.494Z,25.70
2022-09-17T05:21:51.254Z,22.10
2022-09-17T05:22:51.287Z,19.00
2022-09-17T05:23:51.447Z,22.00
2022-09-17T05:24:51.371Z,21.10
2022-09-17T05:25:51.661Z,21.90
2022-09-17T05:26:51.315Z,25.60
2022-09-17T05:27:51.338Z,19.80
2022-09-17T05:28:51.211Z,25.90
2022-09-17T05:29:51.220Z,23.10
2022-09-17T05:30:51.253Z,24.90
2022-09-17T05:31:51.271Z,20.70
2022-09-17T05:32:51.185Z,17.00
2022-09-17T05:33:51.229Z,23.50
2022-09-17T05:34:51.138Z,17.40
2022-09-17T05:35:51.189Z,19.40
2022-09-17T05:36:51.766Z,21.70
2022-09-17T05:37:51.461Z,17.40
2022-09-17T05:38:51.474Z,23.80
2022-09-17T05:39:51.156Z,22.90
2022-09-17T05:40:51.241Z,27.10
2022-09-17T05:41:51.203Z,26.30
2022-09-17T05:42:51.208Z,25.10
2022-09-17T05:43:51.398Z,23.80
2022-09-17T05:44:51.206Z,25.70
2022-09-17T05:45:51.109Z,25.80
2022-09-17T05:46:51.082Z,21.40
2022-09-17T05:47:50.954Z,21.80
2022-09-17T05:48:51.072Z,30.60
2022-09-17T05:49:57.346Z,31.00
2022-09-17T05:50:50.951Z,22.30
2022-09-17T05:51:51.355Z,27.50
2022-09-17T05:52:51.017Z,30.10
2022-09-17T05:53:50.873Z,29.80
2022-09-17T05:54:50.859Z,33.40
2022-09-17T05:55:50.848Z,23.60
2022-09-17T05:56:50.842Z,27.30
2022-09-17T05:57:50.827Z,23.00
2022-09-17T05:58:50.905Z,35.00
2022-09-17T05:59:50.817Z,24.30
2022-09-17T06:00:50.799Z,25.30
2022-09-17T06:01:50.857Z,24.20
2022-09-17T06:02:50.902Z,19.20
2022-09-17T06:03:50.774Z,22.50
2022-09-17T06:04:50.753Z,25.60
2022-09-17T06:05:50.736Z,22.30
2022-09-17T06:06:50.718Z,23.10
2022-09-17T06:07:50.716Z,25.50
2022-09-17T06:08:50.830Z,27.30
2022-09-17T06:09:50.693Z,26.00
2022-09-17T06:10:50.675Z,27.30
2022-09-17T06:11:50.674Z,25.20
2022-09-17T06:12:50.656Z,24.60
2022-09-17T06:13:50.647Z,27.80
2022-09-17T06:14:50.632Z,18.00
2022-09-17T06:15:50.727Z,24.00
2022-09-17T06:16:50.612Z,20.30
2022-09-17T06:17:50.648Z,24.80
2022-09-17T06:18:50.705Z,29.10
2022-09-17T06:19:50.581Z,26.20
2022-09-17T06:20:50.570Z,27.60
2022-09-17T06:21:50.840Z,23.70
2022-09-17T06:22:50.550Z,20.50
2022-09-17T06:23:50.537Z,25.20
2022-09-17T06:24:50.643Z,23.70
2022-09-17T06:25:50.513Z,25.40
2022-09-17T06:26:50.497Z,18.60
2022-09-17T06:27:50.487Z,20.50
2022-09-17T06:28:50.509Z,26.50
2022-09-17T06:29:51.068Z,18.60
2022-09-17T06:30:50.473Z,19.50
2022-09-17T06:31:50.511Z,24.00
2022-09-17T06:32:50.431Z,26.40
2022-09-17T06:33:50.421Z,25.70
2022-09-17T06:34:50.412Z,21.10
2022-09-17T06:35:50.408Z,22.80
2022-09-17T06:36:50.383Z,27.70
2022-09-17T06:37:50.380Z,24.70
2022-09-17T06:38:50.358Z,26.60
2022-09-17T06:39:50.439Z,23.50
2022-09-17T06:40:50.462Z,25.30
2022-09-17T06:41:50.404Z,20.10
2022-09-17T06:42:50.314Z,23.80
2022-09-17T06:43:50.312Z,20.90
2022-09-17T06:44:51.058Z,18.70
2022-09-17T06:45:50.281Z,16.20
2022-09-17T06:46:50.303Z,15.50
2022-09-17T06:47:50.264Z,26.10
2022-09-17T06:48:50.251Z,19.90
2022-09-17T06:49:50.241Z,21.10
2022-09-17T06:50:50.228Z,18.70
2022-09-17T06:51:50.223Z,22.10
2022-09-17T06:52:50.370Z,19.70
2022-09-17T06:53:50.207Z,22.10
2022-09-17T06:54:50.186Z,25.40
2022-09-17T06:55:50.173Z,24.40
2022-09-17T06:56:50.288Z,20.90
2022-09-17T06:57:50.150Z,20.70
2022-09-17T06:58:50.139Z,18.00
2022-09-17T06:59:50.126Z,17.80
2022-09-17T07:00:50.188Z,19.70
2022-09-17T07:01:50.255Z,32.50
2022-09-17T07:02:50.090Z,20.30
2022-09-17T07:03:50.122Z,25.30
2022-09-17T07:04:50.092Z,24.00
2022-09-17T07:05:50.055Z,21.80
2022-09-17T07:06:50.053Z,22.80
2022-09-17T07:07:50.039Z,18.00
2022-09-17T07:08:50.027Z,18.40
2022-09-17T07:09:50.022Z,12.70
2022-09-17T07:10:50.002Z,18.50
2022-09-17T07:11:49.991Z,21.40
2022-09-17T07:12:50.244Z,18.20
2022-09-17T07:13:49.966Z,19.70
2022-09-17T07:14:49.957Z,17.50
2022-09-17T07:15:50.005Z,18.60
2022-09-17T07:16:49.966Z,17.80
2022-09-17T07:17:49.938Z,24.30
2022-09-17T07:18:49.919Z,18.50
2022-09-17T07:19:49.902Z,24.80
2022-09-17T07:20:49.888Z,17.60
2022-09-17T07:21:49.878Z,19.60
2022-09-17T07:22:49.876Z,19.30
2022-09-17T07:23:49.853Z,18.60
2022-09-17T07:24:49.851Z,19.10
2022-09-17T07:25:49.835Z,16.60
2022-09-17T07:26:49.825Z,17.80
2022-09-17T07:27:49.808Z,16.50
2022-09-17T07:28:49.923Z,15.70
2022-09-17T07:29:49.792Z,16.50
2022-09-17T07:30:49.802Z,16.10
2022-09-17T07:31:49.833Z,16.00
2022-09-17T07:32:49.845Z,19.50
2022-09-17T07:33:49.749Z,19.60
2022-09-17T07:34:49.735Z,14.90
2022-09-17T07:35:49.730Z,17.60
2022-09-17T07:36:49.712Z,21.40
2022-09-17T07:37:49.700Z,17.40
2022-09-17T07:38:49.697Z,19.20
2022-09-17T07:39:49.751Z,20.10
2022-09-17T07:40:49.677Z,17.90
2022-09-17T07:41:49.657Z,15.50
2022-09-17T07:42:49.642Z,15.10
2022-09-17T07:43:49.630Z,17.10
2022-09-17T07:44:49.749Z,11.50
2022-09-17T07:45:49.632Z,16.60
2022-09-17T07:46:49.758Z,15.80
2022-09-17T07:47:49.602Z,24.30
2022-09-17T07:48:49.577Z,16.80
2022-09-17T07:49:49.564Z,17.30
2022-09-17T07:50:49.551Z,18.60
2022-09-17T07:51:49.539Z,14.60
2022-09-17T07:52:49.532Z,16.70
2022-09-17T07:53:49.519Z,14.90
2022-09-17T07:54:49.504Z,13.40
2022-09-17T07:55:49.493Z,24.50
2022-09-17T07:56:49.486Z,16.90
2022-09-17T07:57:49.470Z,19.80
2022-09-17T07:58:49.460Z,16.00
2022-09-17T07:59:49.461Z,16.30
2022-09-17T08:00:49.582Z,18.60
2022-09-17T08:01:49.604Z,15.10
2022-09-17T08:02:49.556Z,19.00
2022-09-17T08:03:49.403Z,17.70
2022-09-17T08:04:49.395Z,16.20
2022-09-17T08:05:49.382Z,11.50
2022-09-17T08:06:49.371Z,14.00
2022-09-17T08:07:49.363Z,13.90
2022-09-17T08:08:49.482Z,13.30
2022-09-17T08:09:49.336Z,14.40
2022-09-17T08:10:49.325Z,15.60
2022-09-17T08:11:55.995Z,13.50
2022-09-17T08:12:50.358Z,15.10
2022-09-17T08:13:49.358Z,15.80
2022-09-17T08:14:49.284Z,14.20
2022-09-17T08:15:49.306Z,19.60
2022-09-17T08:16:49.378Z,11.30
2022-09-17T08:17:49.250Z,15.00
2022-09-17T08:18:49.238Z,16.00
2022-09-17T08:19:49.224Z,13.60
2022-09-17T08:20:49.233Z,14.10
2022-09-17T08:21:49.203Z,16.10
2022-09-17T08:22:50.337Z,17.30
2022-09-17T08:23:49.201Z,15.20
2022-09-17T08:24:49.305Z,17.30
2022-09-17T08:25:49.499Z,12.90
2022-09-17T08:26:49.147Z,12.40
2022-09-17T08:27:49.133Z,9.80
2022-09-17T08:28:49.124Z,12.80
2022-09-17T08:29:49.111Z,8.90
2022-09-17T08:30:49.101Z,9.60
2022-09-17T08:31:49.194Z,9.10
2022-09-17T08:32:49.282Z,11.00
2022-09-17T08:33:49.068Z,7.70
2022-09-17T08:34:49.059Z,15.00
2022-09-17T08:35:49.066Z,7.80
2022-09-17T08:36:49.050Z,9.80
2022-09-17T08:37:49.029Z,12.50
2022-09-17T08:38:49.042Z,9.50
2022-09-17T08:39:49.175Z,10.80
2022-09-17T08:40:48.989Z,10.40
2022-09-17T08:41:48.999Z,9.30
2022-09-17T08:42:48.969Z,9.40
2022-09-17T08:43:48.956Z,12.50
2022-09-17T08:44:51.876Z,8.80
2022-09-17T08:45:48.934Z,7.80
2022-09-17T08:46:48.999Z,9.20
2022-09-17T08:47:48.908Z,9.00
2022-09-17T08:48:49.033Z,10.30
2022-09-17T08:49:48.922Z,11.40
2022-09-17T08:50:48.940Z,10.30
2022-09-17T08:51:48.894Z,10.10
2022-09-17T08:52:48.858Z,9.50
2022-09-17T08:53:48.906Z,6.00
2022-09-17T08:54:48.834Z,6.90
2022-09-17T08:55:48.821Z,8.80
2022-09-17T08:56:48.809Z,10.70
2022-09-17T08:57:48.797Z,9.10
2022-09-17T08:58:48.795Z,9.20
2022-09-17T08:59:48.776Z,9.60
2022-09-17T09:00:48.765Z,10.40
2022-09-17T09:01:48.872Z,13.10
2022-09-17T09:02:48.878Z,11.40
2022-09-17T09:03:49.087Z,11.90
2022-09-17T09:04:48.841Z,15.20
2022-09-17T09:05:48.736Z,9.30
2022-09-17T09:06:48.699Z,12.60
2022-09-17T09:07:48.684Z,12.60
2022-09-17T09:08:48.677Z,8.90
2022-09-17T09:09:48.662Z,12.00
2022-09-17T09:10:48.651Z,10.10
2022-09-17T09:11:48.643Z,1.00
2022-09-17T09:12:48.630Z,12.00
2022-09-17T09:13:48.643Z,16.30
2022-09-17T09:14:48.612Z,13.30
2022-09-17T09:15:48.655Z,4.80
2022-09-17T09:16:48.585Z,9.70
2022-09-17T09:17:48.572Z,8.70
2022-09-17T09:18:48.565Z,16.00
2022-09-17T09:19:48.548Z,23.40
2022-09-17T09:20:48.661Z,15.70
2022-09-17T09:21:48.528Z,14.70
2022-09-17T09:22:48.528Z,16.00
2022-09-17T09:23:48.641Z,13.30
2022-09-17T09:24:48.497Z,15.60
2022-09-17T09:25:48.482Z,12.90
2022-09-17T09:26:48.477Z,13.20
2022-09-17T09:27:48.461Z,10.70
2022-09-17T09:28:48.447Z,14.60
2022-09-17T09:29:48.436Z,10.40
2022-09-17T09:30:48.430Z,10.80
2022-09-17T09:31:48.465Z,12.90
2022-09-17T09:32:48.407Z,12.40
2022-09-17T09:33:48.394Z,14.80
2022-09-17T09:34:48.385Z,15.20
2022-09-17T09:35:48.374Z,14.90
2022-09-17T09:36:48.482Z,13.50
2022-09-17T09:37:48.347Z,12.10
2022-09-17T09:38:48.421Z,14.20
2022-09-17T09:39:48.325Z,12.00
2022-09-17T09:40:48.340Z,13.80
2022-09-17T09:41:48.305Z,9.20
2022-09-17T09:42:48.299Z,8.70
2022-09-17T09:44:04.800Z,17.60
2022-09-17T09:44:49.314Z,14.40
2022-09-17T09:45:48.256Z,14.70
2022-09-17T09:46:48.377Z,15.80
2022-09-17T09:47:48.238Z,16.70
2022-09-17T09:48:48.229Z,11.60
2022-09-17T09:49:48.230Z,15.70
2022-09-17T09:51:05.594Z,11.60
2022-09-17T09:51:49.220Z,9.40
2022-09-17T09:52:48.403Z,13.30
2022-09-17T09:53:48.170Z,11.90
2022-09-17T09:54:48.164Z,10.90
2022-09-17T09:55:48.151Z,9.70
2022-09-17T09:56:48.135Z,12.30
2022-09-17T09:57:48.126Z,21.00
2022-09-17T09:58:48.126Z,14.60
2022-09-17T09:59:48.101Z,19.50
2022-09-17T10:00:48.109Z,15.10
2022-09-17T10:01:48.219Z,10.70
2022-09-17T10:02:48.195Z,14.30
2022-09-17T10:03:48.117Z,11.90
2022-09-17T10:04:52.730Z,9.30
2022-09-17T10:05:48.038Z,10.70
2022-09-17T10:06:48.025Z,9.00
2022-09-17T10:07:48.020Z,11.90
2022-09-17T10:08:48.217Z,8.80
2022-09-17T10:09:47.988Z,14.30
2022-09-17T10:10:47.980Z,11.90
2022-09-17T10:11:47.966Z,10.00
2022-09-17T10:12:47.957Z,7.90
2022-09-17T10:13:47.949Z,9.70
2022-09-17T10:14:47.938Z,8.50
2022-09-17T10:15:47.943Z,7.50
2022-09-17T10:16:47.915Z,9.30
2022-09-17T10:17:47.925Z,12.30
2022-09-17T10:18:47.916Z,10.20
2022-09-17T10:19:47.903Z,9.90
2022-09-17T10:20:47.873Z,9.90
2022-09-17T10:21:47.857Z,8.50
2022-09-17T10:22:47.844Z,8.30
2022-09-17T10:23:47.836Z,14.10
2022-09-17T10:24:47.948Z,8.50
2022-09-17T10:25:47.815Z,6.90
2022-09-17T10:26:47.799Z,10.30
2022-09-17T10:27:47.789Z,9.60
2022-09-17T10:28:47.785Z,10.20
2022-09-17T10:29:47.764Z,8.10
2022-09-17T10:30:47.757Z,8.30
2022-09-17T10:31:47.917Z,11.00
2022-09-17T10:32:47.739Z,8.10
2022-09-17T10:33:47.758Z,12.90
2022-09-17T10:34:47.723Z,14.10
2022-09-17T10:35:47.699Z,8.30
2022-09-17T10:36:47.691Z,6.50
2022-09-17T10:37:47.688Z,9.20
2022-09-17T10:38:47.669Z,5.20
2022-09-17T10:39:47.656Z,11.80
2022-09-17T10:40:47.764Z,7.60
2022-09-17T10:41:47.632Z,6.00
2022-09-17T10:42:47.625Z,12.20
2022-09-17T10:43:47.609Z,11.70
2022-09-17T10:44:47.603Z,11.40
2022-09-17T10:45:47.586Z,8.20
2022-09-17T10:46:47.643Z,9.80
2022-09-17T10:47:47.562Z,8.00
2022-09-17T10:48:47.636Z,9.60
2022-09-17T10:49:47.560Z,11.00
2022-09-17T10:50:47.630Z,14.70
2022-09-17T10:51:47.524Z,16.60
2022-09-17T10:52:47.510Z,18.60
2022-09-17T10:53:47.504Z,12.80
2022-09-17T10:54:47.485Z,15.00
2022-09-17T10:55:47.471Z,19.60
2022-09-17T10:56:47.585Z,13.70
2022-09-17T10:57:47.453Z,15.80
2022-09-17T10:58:47.443Z,12.50
2022-09-17T10:59:47.428Z,17.30
2022-09-17T11:00:47.422Z,10.90
2022-09-17T11:01:47.550Z,15.60
2022-09-17T11:02:47.565Z,17.40
2022-09-17T11:03:47.398Z,16.20
2022-09-17T11:04:47.377Z,12.20
2022-09-17T11:05:47.362Z,15.10
2022-09-17T11:06:47.351Z,20.60
2022-09-17T11:07:47.346Z,12.90
2022-09-17T11:08:47.326Z,10.20
2022-09-17T11:09:47.515Z,16.50
2022-09-17T11:10:47.306Z,19.40
2022-09-17T11:11:47.291Z,13.50
2022-09-17T11:12:47.404Z,15.80
2022-09-17T11:13:47.268Z,11.10
2022-09-17T11:14:47.258Z,13.60
2022-09-17T11:15:52.183Z,22.10
2022-09-17T11:16:47.271Z,20.00
2022-09-17T11:17:47.314Z,21.10
2022-09-17T11:18:47.461Z,19.90
2022-09-17T11:19:47.490Z,12.70
2022-09-17T11:20:47.199Z,16.00
2022-09-17T11:21:47.179Z,14.10
2022-09-17T11:22:47.171Z,15.10
2022-09-17T11:23:47.161Z,12.70
2022-09-17T11:24:47.145Z,16.80
2022-09-17T11:25:47.137Z,16.90
2022-09-17T11:26:47.122Z,17.20
2022-09-17T11:27:47.121Z,19.80
2022-09-17T11:28:47.228Z,16.10
2022-09-17T11:29:47.093Z,16.60
2022-09-17T11:30:47.080Z,15.50
2022-09-17T11:31:47.133Z,12.70
2022-09-17T11:32:47.320Z,11.60
2022-09-17T11:33:47.046Z,11.50
2022-09-17T11:34:47.033Z,11.00
2022-09-17T11:35:47.024Z,11.20
2022-09-17T11:36:47.017Z,15.30
2022-09-17T11:37:47.033Z,13.80
2022-09-17T11:38:47.004Z,14.70
2022-09-17T11:39:47.037Z,11.40
2022-09-17T11:40:46.968Z,3.90
2022-09-17T11:41:46.960Z,11.40
2022-09-17T11:42:46.972Z,12.00
2022-09-17T11:43:46.958Z,12.80
2022-09-17T11:44:47.143Z,9.00
2022-09-17T11:45:46.981Z,8.20
2022-09-17T11:46:47.065Z,12.90
2022-09-17T11:47:46.922Z,15.60
2022-09-17T11:48:46.933Z,11.50
2022-09-17T11:49:46.914Z,12.00
2022-09-17T11:50:46.929Z,11.80
2022-09-17T11:51:46.934Z,8.70
2022-09-17T11:52:46.911Z,12.00
2022-09-17T11:53:47.142Z,11.40
2022-09-17T11:54:46.892Z,9.60
2022-09-17T11:55:46.904Z,16.20
2022-09-17T11:56:46.881Z,11.40
2022-09-17T11:57:46.777Z,9.90
2022-09-17T11:58:46.768Z,10.60
2022-09-17T11:59:46.754Z,10.50
2022-09-17T12:00:46.877Z,14.70
2022-09-17T12:01:46.881Z,13.40
2022-09-17T12:02:46.768Z,16.90
2022-09-17T12:03:46.705Z,13.80
2022-09-17T12:04:46.699Z,14.20
2022-09-17T12:05:46.702Z,12.90
2022-09-17T12:06:46.682Z,8.70
2022-09-17T12:07:46.674Z,10.40
2022-09-17T12:08:46.715Z,9.90
2022-09-17T12:09:46.641Z,13.60
2022-09-17T12:10:46.637Z,13.20
2022-09-17T12:11:46.623Z,13.60
2022-09-17T12:12:50.159Z,13.50
2022-09-17T12:13:46.639Z,10.90
2022-09-17T12:14:46.609Z,10.40
2022-09-17T12:15:50.969Z,10.80
2022-09-17T12:16:46.734Z,14.80
2022-09-17T12:17:46.559Z,13.60
2022-09-17T12:18:46.545Z,13.30
2022-09-17T12:19:46.534Z,16.20
2022-09-17T12:20:46.554Z,13.50
2022-09-17T12:21:46.582Z,12.10
2022-09-17T12:22:46.613Z,12.10
2022-09-17T12:23:46.685Z,13.10
2022-09-17T12:24:46.651Z,13.80
2022-09-17T12:25:46.500Z,12.60
2022-09-17T12:26:46.657Z,17.40
2022-09-17T12:27:46.605Z,14.50
2022-09-17T12:28:46.426Z,12.90
2022-09-17T12:29:46.415Z,17.50
2022-09-17T12:30:46.400Z,12.10
2022-09-17T12:31:46.504Z,15.10
2022-09-17T12:32:46.503Z,15.10
2022-09-17T12:33:46.367Z,17.20
2022-09-17T12:34:46.358Z,14.10
2022-09-17T12:36:03.537Z,17.60
2022-09-17T12:36:47.463Z,15.30
2022-09-17T12:37:46.324Z,16.50
2022-09-17T12:38:46.441Z,20.40
2022-09-17T12:39:46.302Z,19.70
2022-09-17T12:40:46.359Z,9.40
2022-09-17T12:41:46.315Z,19.10
2022-09-17T12:42:46.266Z,12.60
2022-09-17T12:43:46.255Z,21.80
2022-09-17T12:44:46.243Z,16.60
2022-09-17T12:45:50.445Z,9.50
2022-09-17T12:46:46.299Z,18.30
2022-09-17T12:47:46.212Z,18.20
2022-09-17T12:48:46.315Z,10.80
2022-09-17T12:49:46.282Z,13.90
2022-09-17T12:50:46.181Z,17.10
2022-09-17T12:51:46.167Z,11.90
2022-09-17T12:52:46.155Z,13.40
2022-09-17T12:53:46.281Z,18.20
2022-09-17T12:54:46.137Z,16.80